Time;durP1;ratioP1;P1;durP2;ratioP2;P2;SDS_P1;SDS_P2;PMS_P1;PMS_P2;Temp;Humidity;BMP_temperature;BMP_pressure;BME280_temperature;BME280_humidity;BME280_pressure;Samples;Min_cycle;Max_cycle;Signal;HPM_P1;HPM_P2
2022/03/27 00:01:32;;;;;;;15.32;9.85;;;12.70;92.30;;;;;;5070925;28;20031;-87
2022/03/27 00:03:58;;;;;;;15.80;8.60;;;12.70;92.20;;;;;;5071530;28;20039;-86
2022/03/27 00:06:24;;;;;;;13.45;9.15;;;12.70;92.10;;;;;;5051459;28;20032;-85
2022/03/27 00:08:49;;;;;;;12.82;8.07;;;12.80;92.00;;;;;;5052223;28;20025;-86
2022/03/27 00:11:24;;;;;;;13.60;8.98;;;12.90;91.90;;;;;;5068849;28;20055;-85
2022/03/27 00:13:50;;;;;;;12.88;7.25;;;12.80;91.80;;;;;;5053225;28;20017;-87
2022/03/27 00:16:16;;;;;;;10.45;7.40;;;12.80;91.60;;;;;;5059384;28;20020;-87
2022/03/27 00:18:41;;;;;;;13.45;7.50;;;12.80;91.50;;;;;;5070887;28;20596;-86
2022/03/27 00:21:10;;;;;;;12.05;7.15;;;12.70;91.40;;;;;;5071784;28;20445;-87
2022/03/27 00:23:35;;;;;;;13.68;7.45;;;12.80;91.40;;;;;;5053052;28;20761;-85
2022/03/27 00:26:02;;;;;;;10.80;6.75;;;12.80;91.20;;;;;;5052644;28;20020;-86
2022/03/27 00:28:32;;;;;;;10.98;6.55;;;12.70;91.20;;;;;;5071125;28;20035;-86
2022/03/27 00:30:59;;;;;;;9.27;6.50;;;12.70;91.20;;;;;;5052121;28;20055;-86
2022/03/27 00:33:25;;;;;;;11.18;6.43;;;12.70;91.20;;;;;;5053655;28;20097;-86
2022/03/27 00:35:50;;;;;;;8.95;6.53;;;12.60;91.20;;;;;;5070128;28;20453;-86
2022/03/27 00:38:17;;;;;;;11.27;6.43;;;12.60;91.30;;;;;;5053485;28;20029;-86
2022/03/27 00:40:42;;;;;;;9.10;6.22;;;12.50;91.20;;;;;;5070354;28;20111;-86
2022/03/27 00:43:08;;;;;;;9.90;6.50;;;12.50;91.30;;;;;;5061792;28;20537;-86
2022/03/27 00:45:34;;;;;;;8.38;6.10;;;12.60;91.20;;;;;;5069783;28;20376;-87
2022/03/27 00:47:59;;;;;;;9.00;6.35;;;12.60;91.10;;;;;;5072334;28;20449;-87
2022/03/27 00:50:25;;;;;;;10.45;6.30;;;12.60;91.10;;;;;;5072803;28;20034;-86
2022/03/27 00:52:57;;;;;;;10.80;6.60;;;12.60;91.10;;;;;;5074391;28;20427;-85
2022/03/27 00:55:23;;;;;;;10.80;7.05;;;12.60;91.10;;;;;;5055407;28;20313;-88
2022/03/27 00:57:49;;;;;;;13.07;6.70;;;12.60;91.20;;;;;;5074174;28;20032;-86
2022/03/27 01:00:37;;;;;;;9.40;6.47;;;12.50;91.30;;;;;;5074506;28;20048;-86
2022/03/27 01:03:04;;;;;;;10.48;7.15;;;12.40;91.40;;;;;;5055438;28;20037;-86
2022/03/27 01:05:30;;;;;;;11.55;7.18;;;12.30;91.80;;;;;;5074899;28;20477;-85
2022/03/27 01:07:56;;;;;;;10.85;7.18;;;12.00;92.50;;;;;;5072198;28;20074;-87
2022/03/27 01:10:25;;;;;;;12.98;7.93;;;12.00;92.40;;;;;;5072154;28;20031;-87
2022/03/27 01:12:51;;;;;;;10.85;8.07;;;12.00;92.20;;;;;;5052621;28;20040;-85
2022/03/27 01:15:45;;;;;;;13.77;8.52;;;12.10;92.30;;;;;;5069936;28;20270;-85
2022/03/27 01:18:12;;;;;;;14.95;8.75;;;12.00;92.70;;;;;;5070887;28;20152;-86
2022/03/27 01:20:40;;;;;;;14.27;7.85;;;12.00;92.60;;;;;;5051962;28;20032;-85
2022/03/27 01:23:11;;;;;;;10.95;7.55;;;11.90;92.80;;;;;;5052585;28;20107;-85
2022/03/27 01:25:37;;;;;;;12.43;7.57;;;12.00;92.70;;;;;;5052725;28;20029;-84
2022/03/27 01:28:03;;;;;;;11.85;8.05;;;12.00;92.60;;;;;;5070426;28;20063;-86
2022/03/27 01:30:29;;;;;;;11.98;7.57;;;12.00;92.50;;;;;;5052464;28;20039;-87
2022/03/27 01:32:55;;;;;;;11.75;7.47;;;12.00;92.40;;;;;;5070226;28;20012;-86
2022/03/27 01:35:22;;;;;;;13.50;8.80;;;12.00;92.40;;;;;;5048150;28;20029;-86
2022/03/27 01:37:48;;;;;;;12.98;8.50;;;11.90;92.60;;;;;;5052137;28;20055;-85
2022/03/27 01:40:15;;;;;;;12.10;8.45;;;11.70;92.90;;;;;;5051528;28;20036;-84
2022/03/27 01:42:41;;;;;;;13.82;9.50;;;11.60;93.00;;;;;;5051532;28;20029;-85
2022/03/27 01:45:08;;;;;;;14.15;8.60;;;11.60;93.20;;;;;;5052529;28;20020;-85
2022/03/27 01:47:34;;;;;;;12.77;8.50;;;11.50;93.30;;;;;;5050568;28;20032;-87
2022/03/27 01:50:04;;;;;;;12.13;8.60;;;11.60;93.20;;;;;;5052049;28;20020;-85
2022/03/27 01:52:29;;;;;;;14.27;9.07;;;11.50;93.30;;;;;;5072119;28;20032;-86
2022/03/27 01:54:55;;;;;;;13.27;8.88;;;11.60;93.20;;;;;;5051150;28;20368;-87
2022/03/27 01:57:20;;;;;;;14.02;8.93;;;11.60;93.10;;;;;;5045690;28;20029;-86
2022/03/27 01:59:46;;;;;;;15.77;9.27;;;11.60;93.10;;;;;;5069884;28;20409;-86
2022/03/27 02:02:12;;;;;;;14.48;9.82;;;11.60;93.10;;;;;;5059270;28;20031;-86
2022/03/27 02:04:37;;;;;;;14.98;9.18;;;11.60;93.10;;;;;;5059424;28;20052;-85
2022/03/27 02:07:03;;;;;;;14.27;9.15;;;11.60;93.10;;;;;;5050361;28;20120;-84
2022/03/27 02:09:29;;;;;;;15.88;9.00;;;11.60;93.10;;;;;;5069146;28;20115;-84
2022/03/27 02:11:54;;;;;;;16.80;9.95;;;11.50;93.00;;;;;;5051308;28;20036;-86
2022/03/27 02:14:20;;;;;;;13.45;9.15;;;11.50;93.20;;;;;;5051814;28;20028;-85
2022/03/27 02:16:45;;;;;;;14.35;9.32;;;11.50;93.20;;;;;;5069029;28;20447;-86
2022/03/27 02:19:11;;;;;;;16.50;9.90;;;11.40;93.30;;;;;;5051492;28;20051;-86
2022/03/27 02:21:38;;;;;;;15.40;10.45;;;11.40;93.40;;;;;;5068998;28;20021;-86
2022/03/27 02:24:04;;;;;;;16.80;10.70;;;11.40;93.40;;;;;;5069827;28;20416;-87
2022/03/27 02:26:31;;;;;;;16.27;10.52;;;11.40;93.50;;;;;;5050225;28;20426;-85
2022/03/27 02:28:57;;;;;;;15.63;9.52;;;11.30;93.70;;;;;;5051529;28;20067;-85
2022/03/27 02:31:22;;;;;;;14.98;9.88;;;11.30;93.60;;;;;;5051120;28;20056;-85
2022/03/27 02:33:48;;;;;;;17.65;10.38;;;11.20;93.80;;;;;;5072698;28;20031;-87
2022/03/27 02:36:14;;;;;;;21.73;10.23;;;11.10;93.80;;;;;;5072220;28;20021;-85
2022/03/27 02:38:40;;;;;;;16.42;10.02;;;11.10;93.90;;;;;;5054186;28;20029;-86
2022/03/27 02:41:07;;;;;;;17.02;10.90;;;11.10;93.80;;;;;;5072705;28;20373;-87
2022/03/27 02:43:33;;;;;;;13.90;9.50;;;11.10;93.80;;;;;;5053948;28;20070;-87
2022/03/27 02:45:59;;;;;;;15.05;9.55;;;11.10;93.80;;;;;;5054532;28;20464;-84
2022/03/27 02:48:25;;;;;;;19.85;10.73;;;11.10;93.80;;;;;;5072972;28;20071;-86
2022/03/27 02:50:51;;;;;;;15.60;9.75;;;11.10;93.80;;;;;;5072198;28;20035;-85
2022/03/27 02:53:16;;;;;;;14.60;9.65;;;11.00;93.90;;;;;;5063756;28;20016;-86
2022/03/27 02:55:41;;;;;;;16.58;10.32;;;11.00;93.80;;;;;;5058691;28;20437;-86
2022/03/27 02:58:08;;;;;;;16.63;10.43;;;11.00;93.90;;;;;;5054470;28;20033;-86
2022/03/27 03:00:34;;;;;;;18.60;10.90;;;10.90;94.00;;;;;;5072724;28;20024;-85
2022/03/27 03:02:59;;;;;;;14.95;9.60;;;10.80;94.20;;;;;;5072792;28;20358;-86
2022/03/27 03:05:25;;;;;;;16.83;10.43;;;10.80;94.10;;;;;;5051544;28;20070;-85
2022/03/27 03:07:51;;;;;;;20.17;10.65;;;10.70;94.20;;;;;;5054172;28;20027;-84
2022/03/27 03:10:17;;;;;;;14.68;10.52;;;10.60;94.20;;;;;;5072778;28;20105;-87
2022/03/27 03:12:43;;;;;;;19.77;11.38;;;10.60;94.40;;;;;;5053983;28;20086;-85
2022/03/27 03:15:09;;;;;;;17.88;10.70;;;10.50;94.30;;;;;;5053769;28;20028;-85
2022/03/27 03:17:36;;;;;;;19.52;11.02;;;10.40;94.80;;;;;;5054409;28;20035;-86
2022/03/27 03:20:02;;;;;;;19.35;11.57;;;10.30;94.90;;;;;;5054965;28;20035;-86
2022/03/27 03:22:27;;;;;;;21.38;11.38;;;10.30;94.80;;;;;;5053458;28;20465;-86
2022/03/27 03:24:53;;;;;;;16.83;10.85;;;10.20;94.80;;;;;;5072900;28;20033;-86
2022/03/27 03:27:20;;;;;;;17.58;12.10;;;10.10;94.90;;;;;;5053787;28;20042;-86
2022/03/27 03:29:45;;;;;;;18.42;12.30;;;10.10;95.10;;;;;;5073345;28;20036;-86
2022/03/27 03:32:11;;;;;;;21.38;12.15;;;10.00;95.20;;;;;;5073925;28;20047;-86
2022/03/27 03:34:36;;;;;;;20.33;12.45;;;9.80;95.50;;;;;;5073365;28;20036;-86
2022/03/27 03:37:03;;;;;;;20.35;11.93;;;9.80;95.60;;;;;;5072244;28;20063;-86
2022/03/27 03:39:28;;;;;;;19.23;11.52;;;9.70;95.90;;;;;;5072614;28;20461;-85
2022/03/27 03:41:54;;;;;;;20.23;10.98;;;9.70;95.90;;;;;;5064381;28;20021;-86
2022/03/27 03:44:19;;;;;;;19.80;12.00;;;9.60;95.80;;;;;;5066238;28;20668;-87
2022/03/27 03:46:46;;;;;;;24.70;12.57;;;9.60;95.80;;;;;;5077320;28;20060;-84
2022/03/27 03:49:12;;;;;;;18.70;11.98;;;9.60;95.90;;;;;;5080934;28;20111;-85
2022/03/27 03:51:37;;;;;;;20.15;12.05;;;9.60;95.90;;;;;;5078916;28;20074;-86
2022/03/27 03:54:05;;;;;;;16.63;11.00;;;9.60;96.00;;;;;;5064542;28;20028;-85
2022/03/27 03:56:30;;;;;;;22.00;11.32;;;9.50;95.90;;;;;;5057067;28;20107;-86
2022/03/27 03:58:56;;;;;;;18.83;11.35;;;9.50;95.90;;;;;;5073648;28;20455;-85
2022/03/27 04:01:21;;;;;;;19.55;10.55;;;9.50;95.90;;;;;;5068362;28;20016;-86
2022/03/27 04:03:47;;;;;;;22.27;12.07;;;9.40;95.90;;;;;;5070760;28;20032;-86
2022/03/27 04:06:13;;;;;;;21.63;11.30;;;9.40;96.00;;;;;;5070074;28;20024;-86
2022/03/27 04:08:38;;;;;;;15.90;10.98;;;9.30;95.90;;;;;;5070731;28;20123;-85
2022/03/27 04:11:04;;;;;;;18.92;11.93;;;9.30;95.80;;;;;;5071338;28;20418;-86
2022/03/27 04:13:30;;;;;;;17.02;11.05;;;9.20;95.80;;;;;;5071054;28;20256;-86
2022/03/27 04:15:55;;;;;;;17.48;11.63;;;9.20;95.90;;;;;;5070367;28;20063;-85
2022/03/27 04:18:21;;;;;;;17.42;11.48;;;9.10;95.90;;;;;;5071432;28;20070;-85
2022/03/27 04:20:46;;;;;;;20.77;10.73;;;9.10;96.00;;;;;;5071008;28;20421;-85
2022/03/27 04:23:13;;;;;;;16.48;10.70;;;9.00;96.00;;;;;;5053785;28;20428;-85
2022/03/27 04:25:39;;;;;;;21.90;11.98;;;9.00;96.00;;;;;;5053123;28;20439;-85
2022/03/27 04:28:07;;;;;;;21.40;11.38;;;8.90;96.00;;;;;;5052022;28;20056;-85
2022/03/27 04:30:33;;;;;;;18.05;11.10;;;8.90;96.00;;;;;;5052464;28;20127;-86
2022/03/27 04:32:59;;;;;;;18.02;10.93;;;8.90;96.10;;;;;;5070518;28;20055;-84
2022/03/27 04:35:25;;;;;;;21.05;11.30;;;8.80;96.20;;;;;;5051838;28;20385;-85
2022/03/27 04:37:50;;;;;;;18.90;11.82;;;8.80;96.20;;;;;;5052549;28;20036;-84
2022/03/27 04:40:16;;;;;;;24.13;11.50;;;8.70;96.30;;;;;;5051947;28;20028;-84
2022/03/27 04:42:42;;;;;;;19.85;10.60;;;8.70;96.20;;;;;;5069335;28;20036;-86
2022/03/27 04:45:09;;;;;;;20.98;13.63;;;8.60;96.30;;;;;;5050946;28;20051;-85
2022/03/27 04:47:35;;;;;;;17.40;10.88;;;8.60;96.30;;;;;;5050418;28;20021;-85
2022/03/27 04:50:01;;;;;;;21.25;11.93;;;8.60;96.40;;;;;;5070920;28;20020;-86
2022/03/27 04:52:26;;;;;;;21.73;12.00;;;8.50;96.50;;;;;;5072324;28;20046;-85
2022/03/27 04:54:52;;;;;;;19.60;11.55;;;8.40;96.50;;;;;;5051372;28;20055;-85
2022/03/27 04:57:19;;;;;;;16.80;10.32;;;8.40;96.60;;;;;;5050801;28;20066;-84
2022/03/27 04:59:44;;;;;;;17.88;11.63;;;8.40;96.70;;;;;;5069841;28;20442;-84
2022/03/27 05:02:10;;;;;;;20.38;11.30;;;8.40;96.70;;;;;;5051759;28;20032;-85
2022/03/27 05:04:37;;;;;;;18.45;10.50;;;8.30;96.80;;;;;;5051689;28;20107;-86
2022/03/27 05:07:03;;;;;;;18.77;11.25;;;8.30;96.90;;;;;;5068280;28;20111;-85
2022/03/27 05:09:29;;;;;;;18.77;11.15;;;8.30;97.00;;;;;;5070071;28;20096;-85
2022/03/27 05:11:55;;;;;;;19.48;11.18;;;8.30;97.00;;;;;;5069784;28;20100;-85
2022/03/27 05:14:21;;;;;;;20.60;11.43;;;8.30;97.00;;;;;;5047991;28;20513;-85
2022/03/27 05:16:46;;;;;;;18.23;11.05;;;8.30;97.10;;;;;;5074433;28;20024;-84
2022/03/27 05:19:12;;;;;;;20.13;11.23;;;8.20;97.10;;;;;;5073391;28;20024;-86
2022/03/27 05:21:37;;;;;;;19.23;11.63;;;8.20;97.10;;;;;;5071777;28;20028;-85
2022/03/27 05:24:03;;;;;;;18.95;11.32;;;8.20;97.10;;;;;;5059664;28;20055;-85
2022/03/27 05:26:29;;;;;;;18.00;11.02;;;8.20;97.20;;;;;;5066398;28;20064;-84
2022/03/27 05:28:55;;;;;;;17.98;11.07;;;8.20;97.30;;;;;;5073250;28;20089;-84
2022/03/27 05:31:21;;;;;;;20.25;10.73;;;8.20;97.30;;;;;;5070503;28;20528;-83
2022/03/27 05:33:47;;;;;;;16.48;10.82;;;8.20;97.40;;;;;;5067566;28;20024;-85
2022/03/27 05:36:13;;;;;;;19.00;11.52;;;8.20;97.40;;;;;;5045675;28;20056;-84
2022/03/27 05:38:40;;;;;;;16.40;10.55;;;8.20;97.50;;;;;;5049419;28;20454;-86
2022/03/27 05:41:07;;;;;;;17.33;10.73;;;8.20;97.50;;;;;;5049779;28;20035;-84
2022/03/27 05:43:33;;;;;;;24.27;11.98;;;8.20;97.50;;;;;;5067568;28;20025;-85
2022/03/27 05:45:59;;;;;;;19.77;10.63;;;8.20;97.50;;;;;;5073696;28;20417;-84
2022/03/27 05:48:24;;;;;;;20.27;10.50;;;8.20;97.60;;;;;;5070411;28;20080;-85
2022/03/27 05:50:50;;;;;;;17.05;11.00;;;8.30;97.70;;;;;;5068951;28;20040;-84
2022/03/27 05:53:16;;;;;;;17.90;11.23;;;8.30;97.60;;;;;;5069059;28;20020;-86
2022/03/27 05:55:42;;;;;;;19.65;12.43;;;8.20;97.70;;;;;;5083324;28;20059;-86
2022/03/27 05:58:08;;;;;;;15.10;10.60;;;8.30;97.70;;;;;;5057538;28;20091;-85
2022/03/27 06:00:34;;;;;;;24.08;11.27;;;8.30;97.70;;;;;;5062229;28;20048;-84
2022/03/27 06:03:00;;;;;;;16.75;10.88;;;8.30;97.70;;;;;;5081313;28;20009;-82
2022/03/27 06:05:27;;;;;;;14.95;10.15;;;8.30;97.70;;;;;;5062059;28;20120;-83
2022/03/27 06:07:58;;;;;;;16.50;9.90;;;8.40;97.70;;;;;;5084196;28;20032;-83
2022/03/27 06:10:33;;;;;;;17.92;10.20;;;8.40;97.70;;;;;;5075147;28;20044;-82
2022/03/27 06:13:02;;;;;;;15.50;9.57;;;8.50;97.70;;;;;;5051942;28;20486;-85
2022/03/27 06:15:29;;;;;;;21.15;10.23;;;8.50;97.80;;;;;;5076286;28;20028;-84
2022/03/27 06:17:56;;;;;;;16.50;10.60;;;8.50;97.80;;;;;;5057960;28;20036;-82
2022/03/27 06:20:31;;;;;;;14.88;8.88;;;8.60;97.90;;;;;;5054028;28;20475;-83
2022/03/27 06:22:58;;;;;;;18.55;10.05;;;8.60;97.80;;;;;;5068507;28;20048;-83
2022/03/27 06:25:26;;;;;;;19.60;10.70;;;8.60;97.90;;;;;;5071708;28;20032;-84
2022/03/27 06:27:52;;;;;;;14.45;9.98;;;8.70;97.90;;;;;;5071839;28;21895;-84
2022/03/27 06:30:20;;;;;;;15.15;9.32;;;8.70;98.00;;;;;;5052217;28;20652;-86
2022/03/27 06:32:46;;;;;;;15.30;9.60;;;8.80;97.90;;;;;;5072929;28;20089;-85
2022/03/27 06:35:16;;;;;;;14.40;9.98;;;8.80;97.80;;;;;;5070604;28;20039;-82
2022/03/27 06:37:41;;;;;;;15.60;9.98;;;8.80;98.00;;;;;;5054459;28;20095;-85
2022/03/27 06:40:09;;;;;;;14.98;9.82;;;8.90;97.90;;;;;;5071781;28;20127;-85
2022/03/27 06:42:35;;;;;;;12.68;9.00;;;8.90;97.70;;;;;;5051904;28;20544;-85
2022/03/27 06:45:02;;;;;;;15.15;10.38;;;9.00;97.60;;;;;;5070516;28;20119;-86
2022/03/27 06:47:27;;;;;;;13.85;10.23;;;8.90;98.00;;;;;;5053529;28;20550;-87
2022/03/27 06:49:58;;;;;;;13.98;9.02;;;9.00;97.80;;;;;;5071910;28;20143;-79
2022/03/27 06:52:26;;;;;;;13.50;9.35;;;9.10;97.80;;;;;;5038719;28;20021;-86
2022/03/27 06:54:52;;;;;;;13.40;9.93;;;9.10;97.40;;;;;;5072124;28;20028;-86
2022/03/27 06:57:18;;;;;;;15.50;9.80;;;9.20;97.40;;;;;;5071037;28;20044;-86
2022/03/27 07:05:12;;;;;;;14.65;8.55;;;9.20;97.80;;;;;;5074839;28;20086;-87
2022/03/27 07:07:38;;;;;;;14.60;9.60;;;9.30;97.50;;;;;;5068188;28;20028;-86
2022/03/27 07:10:05;;;;;;;14.07;9.30;;;9.40;97.50;;;;;;5060294;28;20052;-88
2022/03/27 07:12:30;;;;;;;13.70;9.02;;;9.50;97.40;;;;;;5071135;28;20027;-85
2022/03/27 07:14:57;;;;;;;14.57;8.05;;;9.60;97.20;;;;;;5072685;28;20021;-86
2022/03/27 07:17:23;;;;;;;11.70;8.30;;;9.70;96.90;;;;;;5053407;28;20547;-86
2022/03/27 07:19:48;;;;;;;12.90;7.85;;;9.90;96.70;;;;;;5071925;28;20032;-87
2022/03/27 07:22:14;;;;;;;16.65;9.18;;;9.90;96.50;;;;;;5054539;28;20039;-86
2022/03/27 07:24:42;;;;;;;10.90;7.30;;;10.00;96.40;;;;;;5071778;28;20035;-85
2022/03/27 07:27:08;;;;;;;10.77;7.88;;;10.10;96.30;;;;;;5071047;28;20024;-86
2022/03/27 07:29:37;;;;;;;11.65;7.50;;;10.20;96.10;;;;;;5070674;28;20048;-84
2022/03/27 07:32:04;;;;;;;11.30;7.10;;;10.30;95.90;;;;;;5050930;28;20033;-86
2022/03/27 07:34:29;;;;;;;12.02;8.68;;;10.40;95.70;;;;;;5071261;28;20020;-87
2022/03/27 07:36:55;;;;;;;13.63;8.20;;;10.50;95.60;;;;;;5048846;28;20078;-86
2022/03/27 07:39:21;;;;;;;11.35;7.55;;;10.50;95.50;;;;;;5054022;28;20029;-87
2022/03/27 07:41:47;;;;;;;12.95;7.63;;;10.60;95.30;;;;;;5072123;28;20016;-88
2022/03/27 07:44:13;;;;;;;10.30;7.72;;;10.70;95.20;;;;;;5071401;28;20025;-85
2022/03/27 07:46:38;;;;;;;13.38;7.90;;;10.90;94.90;;;;;;5053118;28;20065;-85
2022/03/27 07:49:04;;;;;;;10.98;7.53;;;10.90;94.70;;;;;;5039181;28;20025;-87
2022/03/27 07:51:29;;;;;;;12.05;8.07;;;11.00;94.60;;;;;;5048366;28;20020;-89
2022/03/27 07:53:55;;;;;;;13.82;7.65;;;11.10;94.40;;;;;;5052277;28;20024;-86
2022/03/27 07:56:20;;;;;;;9.95;7.15;;;11.10;94.40;;;;;;5054719;28;20158;-85
2022/03/27 07:58:46;;;;;;;10.68;7.00;;;11.20;94.20;;;;;;5073411;28;20050;-85
2022/03/27 08:01:14;;;;;;;10.35;6.70;;;11.30;94.10;;;;;;5074026;28;20013;-85
2022/03/27 08:03:41;;;;;;;9.43;7.20;;;11.40;94.10;;;;;;5073978;28;20020;-84
2022/03/27 08:06:07;;;;;;;10.57;7.63;;;11.50;93.80;;;;;;5073796;28;20024;-86
2022/03/27 08:08:33;;;;;;;9.55;6.70;;;11.50;93.50;;;;;;5083137;28;20108;-85
2022/03/27 08:10:58;;;;;;;10.80;7.80;;;11.70;93.40;;;;;;5076572;28;20067;-87
2022/03/27 08:13:24;;;;;;;10.57;7.43;;;11.80;93.20;;;;;;5085815;28;20039;-85
2022/03/27 08:15:49;;;;;;;9.75;7.03;;;11.80;92.80;;;;;;5055905;28;20107;-87
2022/03/27 08:18:15;;;;;;;10.05;6.97;;;11.80;93.00;;;;;;5073365;28;20349;-86
2022/03/27 08:20:41;;;;;;;9.52;6.00;;;11.90;92.80;;;;;;5073169;28;20024;-87
2022/03/27 08:23:07;;;;;;;8.43;5.53;;;11.90;92.40;;;;;;5073120;28;20028;-86
2022/03/27 08:28:21;;;;;;;12.18;7.55;;;12.20;91.50;;;;;;5070881;28;20078;-85
2022/03/27 08:30:48;;;;;;;9.30;6.82;;;12.30;91.30;;;;;;5071128;28;20110;-87
2022/03/27 08:33:15;;;;;;;12.38;6.43;;;12.30;91.20;;;;;;5071831;28;20020;-89
2022/03/27 08:35:41;;;;;;;8.90;6.63;;;12.50;91.00;;;;;;5071101;28;20058;-87
2022/03/27 08:38:09;;;;;;;10.60;6.68;;;12.70;90.70;;;;;;5072045;28;20514;-89
2022/03/27 08:40:38;;;;;;;9.93;6.88;;;12.80;90.70;;;;;;5051535;28;20429;-88
2022/03/27 08:43:07;;;;;;;7.68;5.60;;;12.90;90.50;;;;;;5072002;28;20020;-87
2022/03/27 08:45:33;;;;;;;8.73;5.82;;;13.10;90.30;;;;;;5071441;28;20032;-87
2022/03/27 08:47:58;;;;;;;8.45;5.95;;;13.20;89.80;;;;;;5054353;28;20036;-87
2022/03/27 08:50:32;;;;;;;8.23;5.88;;;13.40;89.20;;;;;;5054555;28;20032;-87
2022/03/27 08:52:59;;;;;;;8.95;5.85;;;13.50;88.10;;;;;;5055762;28;20024;-88
2022/03/27 08:55:34;;;;;;;8.77;5.57;;;13.70;87.30;;;;;;5070234;28;20027;-87
2022/03/27 08:58:00;;;;;;;10.23;6.15;;;13.80;86.90;;;;;;5053768;28;20107;-87
2022/03/27 09:00:33;;;;;;;9.73;5.95;;;13.90;86.60;;;;;;5053530;28;20587;-86
2022/03/27 09:03:02;;;;;;;9.85;6.45;;;14.00;85.60;;;;;;5052114;28;20021;-84
2022/03/27 09:05:28;;;;;;;8.02;5.53;;;14.00;87.10;;;;;;5053312;28;20429;-86
2022/03/27 09:07:56;;;;;;;10.90;5.78;;;14.20;86.30;;;;;;5074258;28;20021;-85
2022/03/27 09:10:29;;;;;;;10.38;6.07;;;14.40;85.60;;;;;;5058260;28;20111;-86
2022/03/27 09:12:56;;;;;;;8.15;6.07;;;14.60;85.80;;;;;;5076054;28;20446;-87
2022/03/27 09:15:23;;;;;;;7.68;5.55;;;14.80;84.10;;;;;;5076673;28;20369;-87
2022/03/27 09:18:08;;;;;;;9.27;5.63;;;14.70;83.90;;;;;;5075165;28;20025;-85
2022/03/27 09:20:43;;;;;;;7.15;5.55;;;14.60;83.90;;;;;;5073486;28;20028;-88
2022/03/27 09:23:23;;;;;;;6.90;4.80;;;14.80;82.60;;;;;;5055302;28;20020;-86
2022/03/27 09:25:56;;;;;;;7.45;5.40;;;14.70;83.60;;;;;;5055209;28;20020;-86
2022/03/27 09:28:27;;;;;;;5.50;3.95;;;14.80;83.10;;;;;;5061632;28;20441;-87
2022/03/27 09:30:53;;;;;;;4.80;3.45;;;15.00;79.90;;;;;;5036111;28;20033;-86
2022/03/27 09:33:32;;;;;;;5.00;4.07;;;15.10;80.30;;;;;;5036739;28;20025;-86
2022/03/27 09:36:09;;;;;;;6.13;4.10;;;15.20;81.30;;;;;;5047983;28;20033;-86
2022/03/27 09:38:36;;;;;;;8.00;4.65;;;15.30;80.10;;;;;;5055759;28;20036;-85
2022/03/27 09:41:02;;;;;;;5.72;3.83;;;15.50;81.10;;;;;;5058841;28;20055;-89
2022/03/27 09:43:28;;;;;;;4.35;2.65;;;15.70;79.60;;;;;;5060927;28;20021;-87
2022/03/27 09:45:59;;;;;;;5.78;3.33;;;15.80;75.50;;;;;;5059075;28;20025;-86
2022/03/27 09:48:26;;;;;;;7.03;3.30;;;15.70;75.90;;;;;;5049519;28;20033;-87
2022/03/27 09:50:53;;;;;;;6.93;3.72;;;15.80;76.00;;;;;;5072399;28;20028;-87
2022/03/27 09:53:28;;;;;;;6.55;3.47;;;15.90;77.10;;;;;;5085601;28;20016;-87
2022/03/27 09:55:59;;;;;;;7.35;3.05;;;15.90;76.80;;;;;;5073174;28;20024;-88
2022/03/27 09:58:41;;;;;;;4.28;3.42;;;15.80;77.00;;;;;;5069694;28;20111;-88
2022/03/27 10:01:25;;;;;;;4.60;3.83;;;15.80;77.40;;;;;;5056890;28;20529;-86
2022/03/27 10:03:59;;;;;;;4.93;3.60;;;15.80;78.20;;;;;;5058065;28;20041;-87
2022/03/27 10:06:45;;;;;;;5.43;4.18;;;15.90;78.70;;;;;;5074030;28;20529;-90
2022/03/27 10:09:12;;;;;;;6.75;4.05;;;15.90;79.00;;;;;;5057588;28;20111;-89
2022/03/27 10:11:41;;;;;;;7.80;4.78;;;16.00;78.30;;;;;;5056411;28;20036;-89
2022/03/27 10:14:07;;;;;;;6.05;4.32;;;15.90;79.60;;;;;;5075755;28;20027;-88
2022/03/27 10:16:36;;;;;;;7.70;4.57;;;15.90;79.20;;;;;;5074369;28;20112;-90
2022/03/27 10:19:05;;;;;;;6.07;4.55;;;15.80;80.30;;;;;;5057309;28;20029;-88
2022/03/27 10:21:32;;;;;;;8.45;4.70;;;15.90;79.80;;;;;;5056910;28;20023;-87
2022/03/27 10:24:12;;;;;;;6.35;4.55;;;16.10;79.10;;;;;;5075256;28;20103;-87
2022/03/27 10:26:39;;;;;;;5.07;3.90;;;16.30;78.00;;;;;;5056392;28;20081;-84
2022/03/27 10:29:07;;;;;;;5.75;4.32;;;16.40;79.80;;;;;;5075447;28;20078;-89
2022/03/27 10:31:33;;;;;;;5.45;4.15;;;16.50;79.40;;;;;;5056359;28;20062;-91
2022/03/27 10:34:00;;;;;;;5.55;4.38;;;16.60;76.90;;;;;;5075513;28;20061;-87
2022/03/27 10:36:56;;;;;;;6.18;4.22;;;16.60;76.90;;;;;;5074136;28;20025;-86
2022/03/27 10:39:28;;;;;;;6.38;4.53;;;16.70;76.70;;;;;;5075950;28;20024;-86
2022/03/27 10:42:19;;;;;;;9.77;3.85;;;16.70;77.70;;;;;;5058832;28;20032;-90
2022/03/27 10:45:00;;;;;;;4.57;3.67;;;16.80;75.50;;;;;;5079795;28;20020;-88
2022/03/27 10:47:29;;;;;;;3.95;3.22;;;17.00;74.30;;;;;;5082037;28;20048;-88
2022/03/27 10:50:00;;;;;;;4.43;3.50;;;17.00;74.50;;;;;;5083244;28;20024;-91
2022/03/27 10:52:26;;;;;;;5.15;3.78;;;17.00;74.70;;;;;;5078063;28;20036;-87
2022/03/27 10:54:56;;;;;;;4.97;4.07;;;17.00;74.40;;;;;;5074559;28;20045;-87
2022/03/27 10:57:33;;;;;;;3.72;2.90;;;17.10;74.30;;;;;;5067992;28;20385;-84
2022/03/27 10:59:59;;;;;;;4.72;3.20;;;17.20;73.90;;;;;;5078536;28;20374;-88
2022/03/27 11:02:44;;;;;;;4.18;3.25;;;17.20;75.00;;;;;;5064940;28;20025;-84
2022/03/27 11:05:34;;;;;;;3.60;3.05;;;17.30;73.40;;;;;;5078725;28;20028;-86
2022/03/27 11:08:18;;;;;;;4.35;3.33;;;17.30;73.80;;;;;;5029850;28;20127;-86
2022/03/27 11:10:43;;;;;;;3.72;2.97;;;17.30;73.50;;;;;;5072101;28;20032;-85
2022/03/27 11:13:36;;;;;;;4.32;3.45;;;17.40;73.80;;;;;;5055441;28;20763;-85
2022/03/27 11:16:10;;;;;;;2.88;2.38;;;17.60;72.40;;;;;;5068802;28;20039;-85
2022/03/27 11:18:41;;;;;;;6.13;3.60;;;17.70;71.90;;;;;;5053594;28;20023;-86
2022/03/27 11:21:09;;;;;;;3.97;2.78;;;17.70;72.10;;;;;;5054149;28;20117;-88
2022/03/27 11:23:37;;;;;;;5.82;3.13;;;17.80;71.90;;;;;;5060593;28;20024;-81
2022/03/27 11:26:05;;;;;;;5.15;3.55;;;17.70;71.50;;;;;;5069971;28;20098;-82
2022/03/27 11:28:48;;;;;;;3.80;3.00;;;17.40;72.00;;;;;;5069513;28;20384;-83
2022/03/27 11:31:17;;;;;;;6.18;3.15;;;17.30;71.90;;;;;;5068449;28;20047;-81
2022/03/27 11:33:45;;;;;;;5.72;3.58;;;17.40;72.70;;;;;;5053590;28;20032;-78
2022/03/27 11:36:14;;;;;;;4.38;3.42;;;17.40;73.20;;;;;;5068231;28;20016;-78
2022/03/27 11:38:52;;;;;;;4.45;3.17;;;17.50;73.50;;;;;;5069333;28;20029;-81
2022/03/27 11:41:30;;;;;;;5.10;3.55;;;17.60;73.20;;;;;;5069491;28;20028;-83
2022/03/27 11:44:16;;;;;;;3.75;3.35;;;17.80;74.00;;;;;;5069678;28;20036;-81
2022/03/27 11:46:55;;;;;;;5.13;3.55;;;17.90;71.80;;;;;;5067035;28;20036;-82
2022/03/27 11:49:35;;;;;;;4.30;3.65;;;18.10;72.10;;;;;;5070508;28;20032;-82
2022/03/27 11:52:09;;;;;;;4.18;3.58;;;18.10;71.40;;;;;;5068864;28;20044;-82
2022/03/27 11:54:35;;;;;;;3.75;3.30;;;18.20;72.30;;;;;;5052340;28;20081;-81
2022/03/27 11:57:01;;;;;;;3.40;2.90;;;18.20;71.30;;;;;;5068767;28;20631;-81
2022/03/27 11:59:28;;;;;;;8.18;3.83;;;18.10;70.50;;;;;;5070208;28;20050;-82
2022/03/27 12:01:55;;;;;;;4.25;3.22;;;18.00;71.30;;;;;;5068907;28;20028;-81
2022/03/27 12:04:21;;;;;;;5.53;4.38;;;18.00;71.50;;;;;;5070696;28;20472;-85
2022/03/27 12:06:53;;;;;;;5.57;4.07;;;18.00;70.70;;;;;;5051444;28;20067;-88
2022/03/27 12:09:29;;;;;;;3.97;3.58;;;18.20;71.90;;;;;;5069366;28;20457;-86
2022/03/27 12:12:12;;;;;;;6.28;3.47;;;18.30;71.70;;;;;;5050870;28;20028;-85
2022/03/27 12:15:08;;;;;;;5.43;4.05;;;18.50;72.10;;;;;;5068992;28;20044;-81
2022/03/27 12:17:44;;;;;;;4.13;3.60;;;18.60;70.30;;;;;;5061282;28;20089;-80
2022/03/27 12:20:10;;;;;;;4.05;3.25;;;18.50;70.50;;;;;;5051754;28;20027;-80
2022/03/27 12:22:41;;;;;;;5.72;3.67;;;18.40;70.90;;;;;;5067041;28;20056;-80
2022/03/27 12:25:17;;;;;;;4.90;3.83;;;18.30;70.20;;;;;;5068468;28;20445;-80
2022/03/27 12:30:35;;;;;;;5.80;3.75;;;18.10;72.20;;;;;;5066658;28;20031;-80
2022/03/27 12:33:02;;;;;;;4.80;3.65;;;18.20;72.20;;;;;;5051943;28;20016;-82
2022/03/27 12:35:28;;;;;;;5.40;3.85;;;18.50;72.90;;;;;;5065173;28;20451;-83
2022/03/27 12:37:54;;;;;;;3.55;3.13;;;18.60;70.30;;;;;;5052557;28;20393;-82
2022/03/27 12:40:20;;;;;;;5.00;3.28;;;18.70;69.50;;;;;;5068906;28;20019;-80
2022/03/27 12:42:48;;;;;;;5.45;4.00;;;18.70;70.20;;;;;;5065675;28;20032;-81
2022/03/27 12:45:23;;;;;;;3.72;3.13;;;18.80;70.10;;;;;;5069450;28;20032;-81
2022/03/27 12:47:59;;;;;;;4.25;2.83;;;18.80;69.10;;;;;;5059508;28;20061;-81
2022/03/27 12:50:29;;;;;;;4.65;3.30;;;18.90;69.10;;;;;;5047956;28;20052;-86
2022/03/27 12:53:00;;;;;;;4.15;3.28;;;19.10;69.30;;;;;;5074990;28;20103;-86
2022/03/27 12:55:38;;;;;;;5.03;3.88;;;19.20;68.40;;;;;;5057421;28;20024;-86
2022/03/27 12:58:05;;;;;;;4.82;3.30;;;19.20;69.20;;;;;;5051291;28;20600;-87